createdAt,value
2019-03-15T00:02:05.221Z,6.40
2019-03-15T00:04:34.295Z,6.50
2019-03-15T00:07:03.541Z,6.50
2019-03-15T00:09:32.561Z,6.50
2019-03-15T00:12:02.108Z,6.50
2019-03-15T00:14:31.181Z,6.50
2019-03-15T00:17:00.297Z,6.40
2019-03-15T00:19:29.496Z,6.40
2019-03-15T00:21:58.646Z,6.50
2019-03-15T00:24:27.679Z,6.60
2019-03-15T00:26:56.951Z,6.60
2019-03-15T00:29:25.978Z,6.70
2019-03-15T00:31:55.218Z,6.70
2019-03-15T00:34:24.357Z,6.70
2019-03-15T00:36:53.368Z,6.70
2019-03-15T00:39:22.387Z,6.60
2019-03-15T00:41:52.454Z,6.70
2019-03-15T00:44:21.401Z,6.70
2019-03-15T00:46:50.479Z,6.70
2019-03-15T00:49:19.581Z,6.70
2019-03-15T00:51:49.149Z,6.80
2019-03-15T00:54:18.255Z,6.80
2019-03-15T00:56:47.318Z,6.80
2019-03-15T00:59:16.649Z,6.90
2019-03-15T01:01:46.146Z,6.90
2019-03-15T01:04:15.418Z,7.00
2019-03-15T01:06:44.602Z,7.00
2019-03-15T01:09:14.198Z,7.00
2019-03-15T01:11:45.590Z,7.00
2019-03-15T01:14:14.421Z,7.10
2019-03-15T01:16:43.701Z,7.00
2019-03-15T01:19:12.941Z,7.00
2019-03-15T01:21:42.180Z,7.00
2019-03-15T01:24:11.552Z,6.90
2019-03-15T01:26:43.588Z,6.90
2019-03-15T01:29:12.552Z,7.00
2019-03-15T01:31:41.509Z,7.00
2019-03-15T01:34:10.586Z,7.10
2019-03-15T01:36:39.550Z,7.10
2019-03-15T01:39:08.808Z,7.20
2019-03-15T01:41:37.915Z,7.20
2019-03-15T01:44:06.848Z,7.20
2019-03-15T01:46:35.827Z,7.20
2019-03-15T01:49:04.921Z,7.20
2019-03-15T01:51:34.042Z,7.30
2019-03-15T01:54:03.077Z,7.30
2019-03-15T01:56:32.190Z,7.40
2019-03-15T01:59:01.421Z,7.40
2019-03-15T02:01:30.855Z,7.40
2019-03-15T02:04:00.175Z,7.40
2019-03-15T02:06:29.374Z,7.20
2019-03-15T02:08:58.342Z,7.20
2019-03-15T02:11:27.484Z,7.20
2019-03-15T02:13:56.430Z,7.10
2019-03-15T02:16:25.378Z,7.10
2019-03-15T02:18:54.388Z,7.20
2019-03-15T02:21:24.036Z,7.10
2019-03-15T02:23:53.203Z,7.10
2019-03-15T02:26:22.413Z,7.20
2019-03-15T02:28:51.694Z,7.20
2019-03-15T02:31:20.925Z,7.20
2019-03-15T02:33:50.284Z,7.20
2019-03-15T02:36:19.317Z,7.30
2019-03-15T02:38:48.575Z,7.20
2019-03-15T02:41:17.646Z,7.20
2019-03-15T02:43:46.949Z,7.20
2019-03-15T02:46:16.196Z,7.20
2019-03-15T02:48:45.513Z,7.20
2019-03-15T02:51:14.482Z,7.10
2019-03-15T02:53:43.817Z,7.10
2019-03-15T02:56:13.123Z,7.10
2019-03-15T02:58:42.170Z,7.10
2019-03-15T03:01:12.126Z,7.10
2019-03-15T03:03:41.301Z,7.20
2019-03-15T03:06:10.767Z,7.20
2019-03-15T03:08:41.304Z,7.20
2019-03-15T03:11:10.773Z,7.30
2019-03-15T03:13:40.033Z,7.30
2019-03-15T03:16:09.426Z,7.30
2019-03-15T03:18:38.578Z,7.40
2019-03-15T03:21:07.779Z,7.40
2019-03-15T03:23:37.045Z,7.40
2019-03-15T03:26:06.271Z,7.50
2019-03-15T03:28:35.425Z,7.50
2019-03-15T03:31:04.893Z,7.50
2019-03-15T03:33:34.469Z,7.50
2019-03-15T03:36:04.150Z,7.60
2019-03-15T03:38:33.210Z,7.60
2019-03-15T03:41:02.341Z,7.60
2019-03-15T03:43:31.584Z,7.60
2019-03-15T03:46:01.304Z,7.60
2019-03-15T03:48:30.389Z,7.60
2019-03-15T03:51:00.254Z,7.60
2019-03-15T03:53:29.551Z,7.60
2019-03-15T03:55:58.683Z,7.60
2019-03-15T03:58:27.969Z,7.60
2019-03-15T04:00:57.198Z,7.60
2019-03-15T04:03:26.364Z,7.60
2019-03-15T04:05:55.840Z,7.70
2019-03-15T04:08:24.862Z,7.60
2019-03-15T04:10:54.069Z,7.60
2019-03-15T04:13:23.401Z,7.60
2019-03-15T04:15:52.957Z,7.50
2019-03-15T04:18:22.456Z,7.60
2019-03-15T04:20:51.409Z,7.60
2019-03-15T04:23:20.480Z,7.60
2019-03-15T04:25:49.838Z,7.60
2019-03-15T04:28:19.245Z,7.70
2019-03-15T04:30:48.791Z,7.70
2019-03-15T04:33:17.956Z,7.70
2019-03-15T04:35:47.131Z,7.70
2019-03-15T04:38:16.328Z,7.70
2019-03-15T04:40:45.676Z,7.60
2019-03-15T04:43:14.958Z,7.80
2019-03-15T04:45:44.201Z,7.80
2019-03-15T04:48:13.483Z,7.80
2019-03-15T04:50:42.593Z,7.80
2019-03-15T04:53:13.130Z,7.90
2019-03-15T04:55:42.491Z,7.90
2019-03-15T04:58:11.910Z,7.90
2019-03-15T05:00:40.942Z,7.90
2019-03-15T05:03:10.190Z,8.00
2019-03-15T05:05:39.481Z,7.90
2019-03-15T05:08:08.729Z,8.00
2019-03-15T05:10:37.996Z,8.00
2019-03-15T05:13:07.131Z,7.90
2019-03-15T05:15:36.281Z,7.90
2019-03-15T05:18:05.380Z,8.00
2019-03-15T05:20:34.719Z,8.00
2019-03-15T05:23:04.197Z,8.00
2019-03-15T05:25:33.619Z,8.00
2019-03-15T05:28:02.622Z,8.10
2019-03-15T05:30:31.699Z,8.10
2019-03-15T05:33:00.776Z,8.10
2019-03-15T05:35:29.802Z,8.00
2019-03-15T05:37:58.759Z,8.10
2019-03-15T05:40:28.204Z,8.20
2019-03-15T05:42:57.176Z,8.10
2019-03-15T05:45:26.175Z,8.10
2019-03-15T05:47:55.178Z,8.10
2019-03-15T05:50:24.196Z,8.20
2019-03-15T05:52:53.162Z,8.10
2019-03-15T05:55:22.176Z,8.20
2019-03-15T05:57:51.138Z,8.20
2019-03-15T06:00:20.217Z,8.20
2019-03-15T06:02:49.261Z,8.20
2019-03-15T06:05:18.198Z,8.20
2019-03-15T06:07:47.367Z,8.20
2019-03-15T06:10:16.395Z,8.20
2019-03-15T06:12:45.520Z,8.10
2019-03-15T06:15:14.524Z,8.10
2019-03-15T06:17:43.783Z,8.10
2019-03-15T06:20:13.554Z,8.10
2019-03-15T06:22:42.521Z,8.10
2019-03-15T06:25:12.159Z,8.10
2019-03-15T06:27:41.304Z,8.10
2019-03-15T06:30:14.621Z,8.10
2019-03-15T06:32:43.742Z,8.10
2019-03-15T06:35:13.113Z,8.10
2019-03-15T06:37:42.057Z,8.10
2019-03-15T06:40:13.563Z,8.20
2019-03-15T06:42:42.659Z,8.20
2019-03-15T06:45:15.589Z,8.20
2019-03-15T06:47:44.537Z,8.20
2019-03-15T06:50:13.821Z,8.20
2019-03-15T06:52:43.073Z,8.20
2019-03-15T06:55:12.707Z,8.20
2019-03-15T06:57:41.798Z,8.20
2019-03-15T07:00:13.117Z,8.20
2019-03-15T07:02:42.468Z,8.20
2019-03-15T07:05:12.615Z,8.20
2019-03-15T07:07:41.820Z,8.20
2019-03-15T07:10:12.002Z,8.20
2019-03-15T07:12:41.097Z,8.20
2019-03-15T07:15:11.966Z,8.20
2019-03-15T07:17:41.700Z,8.30
2019-03-15T07:20:15.701Z,8.40
2019-03-15T07:22:44.818Z,8.40
2019-03-15T07:25:14.125Z,8.40
2019-03-15T07:27:43.299Z,8.50
2019-03-15T07:30:16.536Z,8.40
2019-03-15T07:32:45.482Z,8.40
2019-03-15T07:35:14.544Z,8.40
2019-03-15T07:37:45.483Z,8.40
2019-03-15T07:40:14.585Z,8.30
2019-03-15T07:42:43.682Z,8.30
2019-03-15T07:45:15.758Z,8.40
2019-03-15T07:47:44.782Z,8.30
2019-03-15T07:50:16.924Z,8.40
2019-03-15T07:52:45.981Z,8.30
2019-03-15T07:55:14.993Z,8.30
2019-03-15T07:57:43.945Z,8.30
2019-03-15T08:00:16.940Z,8.40
2019-03-15T08:02:45.927Z,8.40
2019-03-15T08:05:14.942Z,8.50
2019-03-15T08:07:45.593Z,8.50
2019-03-15T08:10:14.638Z,8.60
2019-03-15T08:12:43.767Z,8.60
2019-03-15T08:15:14.463Z,8.60
2019-03-15T08:17:43.483Z,8.60
2019-03-15T08:20:14.791Z,8.60
2019-03-15T08:22:43.849Z,8.70
2019-03-15T08:25:13.003Z,8.70
2019-03-15T08:27:42.232Z,8.70
2019-03-15T08:30:16.455Z,8.70
2019-03-15T08:32:45.607Z,8.80
2019-03-15T08:35:14.792Z,8.70
2019-03-15T08:37:43.883Z,8.80
2019-03-15T08:40:14.158Z,8.80
2019-03-15T08:42:43.130Z,8.80
2019-03-15T08:45:18.195Z,8.80
2019-03-15T08:47:47.531Z,8.80
2019-03-15T08:50:18.469Z,8.70
2019-03-15T08:52:47.512Z,8.70
2019-03-15T08:55:16.517Z,8.70
2019-03-15T08:57:45.456Z,8.60
2019-03-15T09:00:15.558Z,8.70
2019-03-15T09:02:44.692Z,8.70
2019-03-15T09:05:15.780Z,8.70
2019-03-15T09:07:46.013Z,8.70
2019-03-15T09:10:22.995Z,8.80
2019-03-15T09:12:48.090Z,8.70
2019-03-15T09:15:17.168Z,8.70
2019-03-15T09:17:46.407Z,8.80
2019-03-15T09:20:15.968Z,8.90
2019-03-15T09:22:45.350Z,8.90
2019-03-15T09:25:19.904Z,9.00
2019-03-15T09:27:47.091Z,9.00
2019-03-15T09:30:24.581Z,9.10
2019-03-15T09:32:47.290Z,9.10
2019-03-15T09:35:16.350Z,9.10
2019-03-15T09:40:25.908Z,9.20
2019-03-15T09:42:55.295Z,9.30
2019-03-15T09:45:24.370Z,9.30
2019-03-15T09:47:53.375Z,9.30
2019-03-15T09:50:33.911Z,9.30
2019-03-15T09:52:53.403Z,9.40
2019-03-15T09:55:32.257Z,9.40
2019-03-15T09:57:53.282Z,9.50
2019-03-15T10:00:22.340Z,9.50
2019-03-15T10:02:51.454Z,9.60
2019-03-15T10:05:20.396Z,9.60
2019-03-15T10:07:49.366Z,9.60
2019-03-15T10:10:19.941Z,9.70
2019-03-15T10:12:49.071Z,9.70
2019-03-15T10:15:18.346Z,9.70
2019-03-15T10:17:47.497Z,9.70
2019-03-15T10:20:16.669Z,9.80
2019-03-15T10:22:46.034Z,9.80
2019-03-15T10:25:16.227Z,9.80
2019-03-15T10:27:45.438Z,9.80
2019-03-15T10:30:16.004Z,9.80
2019-03-15T10:32:45.311Z,9.80
2019-03-15T10:35:14.640Z,9.90
2019-03-15T10:37:43.688Z,9.90
2019-03-15T10:40:20.682Z,9.80
2019-03-15T10:42:49.688Z,9.80
2019-03-15T10:45:18.705Z,9.80
2019-03-15T10:47:48.088Z,9.90
2019-03-15T10:50:18.250Z,9.90
2019-03-15T10:52:47.504Z,9.80
2019-03-15T10:55:16.640Z,9.90
2019-03-15T10:57:45.589Z,9.90
2019-03-15T11:00:22.184Z,9.90
2019-03-15T11:02:51.483Z,9.90
2019-03-15T11:05:20.632Z,10.00
2019-03-15T11:07:49.808Z,10.00
2019-03-15T11:10:18.840Z,10.00
2019-03-15T11:12:47.992Z,10.00
2019-03-15T11:15:17.284Z,10.00
2019-03-15T11:17:46.412Z,10.10
2019-03-15T11:20:15.678Z,10.10
2019-03-15T11:22:44.722Z,10.20
2019-03-15T11:25:14.107Z,10.20
2019-03-15T11:27:43.170Z,10.30
2019-03-15T11:30:13.655Z,10.30
2019-03-15T11:32:42.862Z,10.30
2019-03-15T11:35:12.605Z,10.40
2019-03-15T11:37:41.679Z,10.30
2019-03-15T11:40:18.872Z,10.40
2019-03-15T11:42:47.165Z,10.40
2019-03-15T11:45:16.177Z,10.40
2019-03-15T11:48:01.829Z,10.40
2019-03-15T11:50:18.089Z,10.40
2019-03-15T11:52:47.124Z,10.40
2019-03-15T11:55:16.285Z,10.50
2019-03-15T11:57:45.711Z,10.50
2019-03-15T12:00:17.121Z,10.50
2019-03-15T12:02:46.085Z,10.60
2019-03-15T12:05:15.477Z,10.50
2019-03-15T12:07:44.801Z,10.60
2019-03-15T12:10:15.966Z,10.60
2019-03-15T12:12:44.982Z,10.70
2019-03-15T12:15:20.056Z,10.70
2019-03-15T12:17:49.142Z,10.60
2019-03-15T12:20:18.416Z,10.50
2019-03-15T12:22:47.686Z,10.60
2019-03-15T12:25:16.959Z,10.70
2019-03-15T12:27:46.133Z,10.70
2019-03-15T12:30:16.406Z,10.70
2019-03-15T12:32:45.835Z,10.70
2019-03-15T12:35:15.841Z,10.70
2019-03-15T12:37:44.941Z,10.80
2019-03-15T12:40:17.593Z,10.80
2019-03-15T12:42:46.852Z,10.80
2019-03-15T12:45:16.321Z,10.90
2019-03-15T12:47:45.470Z,10.90
2019-03-15T12:50:15.386Z,10.90
2019-03-15T12:52:48.455Z,11.00
2019-03-15T12:55:15.722Z,11.00
2019-03-15T12:57:44.797Z,11.00
2019-03-15T13:00:15.959Z,11.10
2019-03-15T13:02:45.368Z,11.10
2019-03-15T13:05:14.740Z,11.20
2019-03-15T13:07:43.793Z,11.10
2019-03-15T13:10:14.039Z,11.10
2019-03-15T13:12:43.471Z,11.20
2019-03-15T13:15:14.282Z,11.30
2019-03-15T13:17:43.549Z,11.30
2019-03-15T13:20:16.831Z,11.40
2019-03-15T13:22:46.035Z,11.30
2019-03-15T13:25:15.161Z,11.20
2019-03-15T13:27:44.403Z,11.20
2019-03-15T13:30:17.097Z,11.20
2019-03-15T13:32:46.255Z,11.20
2019-03-15T13:35:15.969Z,11.20
2019-03-15T13:37:45.117Z,11.20
2019-03-15T13:40:16.747Z,11.20
2019-03-15T13:42:46.086Z,11.20
2019-03-15T13:45:15.994Z,11.10
2019-03-15T13:47:45.122Z,11.10
2019-03-15T13:50:18.836Z,11.10
2019-03-15T13:52:48.158Z,11.10
2019-03-15T13:55:17.630Z,11.10
2019-03-15T13:57:46.774Z,11.10
2019-03-15T14:00:18.206Z,11.10
2019-03-15T14:02:47.293Z,11.20
2019-03-15T14:05:16.483Z,11.20
2019-03-15T14:07:45.573Z,11.20
2019-03-15T14:10:15.784Z,11.10
2019-03-15T14:12:44.806Z,11.10
2019-03-15T14:15:15.232Z,11.10
2019-03-15T14:17:44.288Z,11.10
2019-03-15T14:20:14.404Z,11.10
2019-03-15T14:22:44.538Z,11.10
2019-03-15T14:25:21.943Z,11.20
2019-03-15T14:27:50.938Z,11.20
2019-03-15T14:30:20.084Z,11.10
2019-03-15T14:32:49.112Z,11.00
2019-03-15T14:35:18.285Z,11.00
2019-03-15T14:37:47.235Z,11.10
2019-03-15T14:40:16.413Z,11.10
2019-03-15T14:42:45.611Z,11.20
2019-03-15T14:45:15.341Z,11.20
2019-03-15T14:47:44.335Z,11.20
2019-03-15T14:50:14.839Z,11.20
2019-03-15T14:52:43.976Z,11.10
2019-03-15T14:55:18.982Z,11.10
2019-03-15T14:57:52.728Z,11.20
2019-03-15T15:00:19.810Z,11.20
2019-03-15T15:02:49.075Z,11.20
2019-03-15T15:05:18.182Z,11.20
2019-03-15T15:07:47.521Z,11.20
2019-03-15T15:10:18.370Z,11.20
2019-03-15T15:12:47.466Z,11.10
2019-03-15T15:15:20.362Z,11.20
2019-03-15T15:17:49.422Z,11.10
2019-03-15T15:20:18.439Z,11.10
2019-03-15T15:22:47.537Z,11.10
2019-03-15T15:25:17.680Z,11.20
2019-03-15T15:27:46.643Z,11.10
2019-03-15T15:30:17.926Z,11.20
2019-03-15T15:32:46.977Z,11.20
2019-03-15T15:35:15.972Z,11.20
2019-03-15T15:37:45.246Z,11.20
2019-03-15T15:40:20.770Z,11.20
2019-03-15T15:42:49.824Z,11.30
2019-03-15T15:45:18.842Z,11.20
2019-03-15T15:47:47.953Z,11.10
2019-03-15T15:50:17.595Z,11.20
2019-03-15T15:52:46.619Z,11.10
2019-03-15T15:55:16.504Z,11.10
2019-03-15T15:57:45.595Z,11.10
2019-03-15T16:00:16.441Z,11.00
2019-03-15T16:02:45.720Z,11.00
2019-03-15T16:05:15.678Z,11.00
2019-03-15T16:07:44.709Z,11.00
2019-03-15T16:10:18.163Z,11.10
2019-03-15T16:12:47.616Z,11.20
2019-03-15T16:15:19.836Z,11.10
2019-03-15T16:17:48.952Z,11.10
2019-03-15T16:20:18.060Z,11.20
2019-03-15T16:22:47.113Z,11.20
2019-03-15T16:25:16.353Z,11.10
2019-03-15T16:27:45.502Z,11.10
2019-03-15T16:30:18.546Z,11.10
2019-03-15T16:32:47.571Z,11.20
2019-03-15T16:35:16.830Z,11.30
2019-03-15T16:37:45.792Z,11.30
2019-03-15T16:40:15.704Z,11.40
2019-03-15T16:42:45.122Z,11.30
2019-03-15T16:45:30.544Z,11.20
2019-03-15T16:47:59.505Z,11.20
2019-03-15T16:50:28.545Z,11.30
2019-03-15T16:52:57.500Z,11.20
2019-03-15T16:55:26.495Z,11.20
2019-03-15T16:57:55.814Z,11.20
2019-03-15T17:00:24.861Z,11.20
2019-03-15T17:02:54.167Z,11.20
2019-03-15T17:05:23.377Z,11.20
2019-03-15T17:07:52.373Z,11.20
2019-03-15T17:10:21.496Z,11.20
2019-03-15T17:12:50.602Z,11.20
2019-03-15T17:15:25.172Z,11.20
2019-03-15T17:17:54.386Z,11.20
2019-03-15T17:20:23.836Z,11.10
2019-03-15T17:22:53.166Z,11.10
2019-03-15T17:25:22.255Z,11.10
2019-03-15T17:27:51.273Z,11.10
2019-03-15T17:30:20.729Z,11.10
2019-03-15T17:32:50.050Z,11.10
2019-03-15T17:35:20.336Z,11.20
2019-03-15T17:37:49.478Z,11.10
2019-03-15T17:40:20.757Z,11.10
2019-03-15T17:42:50.051Z,11.20
2019-03-15T17:45:19.071Z,11.10
2019-03-15T17:47:48.334Z,11.10
2019-03-15T17:50:26.029Z,11.10
2019-03-15T17:52:55.083Z,11.10
2019-03-15T17:55:24.027Z,11.10
2019-03-15T17:57:53.137Z,11.10
2019-03-15T18:00:31.679Z,11.10
2019-03-15T18:03:00.737Z,11.10
2019-03-15T18:05:30.020Z,11.10
2019-03-15T18:07:59.100Z,11.10
2019-03-15T18:10:28.264Z,11.10
2019-03-15T18:12:57.690Z,11.10
2019-03-15T18:15:26.794Z,11.10
2019-03-15T18:17:55.884Z,11.10
2019-03-15T18:20:25.118Z,11.20
2019-03-15T18:22:54.145Z,11.20
2019-03-15T18:25:23.132Z,11.20
2019-03-15T18:27:52.956Z,11.20
2019-03-15T18:30:22.245Z,11.20
2019-03-15T18:32:51.376Z,11.30
2019-03-15T18:35:32.872Z,11.30
2019-03-15T18:37:51.147Z,11.20
2019-03-15T18:40:20.728Z,11.20
2019-03-15T18:42:49.876Z,11.30
2019-03-15T18:45:19.170Z,11.20
2019-03-15T18:47:48.194Z,11.20
2019-03-15T18:50:22.696Z,11.20
2019-03-15T18:52:52.149Z,11.20
2019-03-15T18:55:21.359Z,11.20
2019-03-15T18:57:50.803Z,11.20
2019-03-15T19:00:23.747Z,11.20
2019-03-15T19:02:52.931Z,11.20
2019-03-15T19:05:22.151Z,11.20
2019-03-15T19:07:51.163Z,11.20
2019-03-15T19:10:20.154Z,11.30
2019-03-15T19:12:49.235Z,11.20
2019-03-15T19:15:19.650Z,11.20
2019-03-15T19:17:48.747Z,11.20
2019-03-15T19:20:17.825Z,11.20
2019-03-15T19:22:46.849Z,11.20
2019-03-15T19:25:16.356Z,11.20
2019-03-15T19:27:45.391Z,11.20
2019-03-15T19:30:20.603Z,11.10
2019-03-15T19:32:49.663Z,11.20
2019-03-15T19:35:18.669Z,11.10
2019-03-15T19:37:47.865Z,11.10
2019-03-15T19:40:18.944Z,11.10
2019-03-15T19:42:48.165Z,11.20
2019-03-15T19:45:17.651Z,11.20
2019-03-15T19:47:46.632Z,11.20
2019-03-15T19:50:17.959Z,11.20
2019-03-15T19:52:47.009Z,11.20
2019-03-15T19:55:16.642Z,11.20
2019-03-15T19:57:45.835Z,11.30
2019-03-15T20:00:19.004Z,11.20
2019-03-15T20:02:48.134Z,11.30
2019-03-15T20:05:17.438Z,11.30
2019-03-15T20:07:46.663Z,11.30
2019-03-15T20:10:17.198Z,11.30
2019-03-15T20:12:46.546Z,11.30
2019-03-15T20:15:16.553Z,11.20
2019-03-15T20:17:45.776Z,11.20
2019-03-15T20:20:16.850Z,11.30
2019-03-15T20:22:46.077Z,11.30
2019-03-15T20:25:16.025Z,11.30
2019-03-15T20:27:45.105Z,11.30
2019-03-15T20:30:26.570Z,11.20
2019-03-15T20:32:54.864Z,11.30
2019-03-15T20:35:23.875Z,11.30
2019-03-15T20:37:53.071Z,11.30
2019-03-15T20:40:24.484Z,11.20
2019-03-15T20:42:53.536Z,11.20
2019-03-15T20:45:26.117Z,11.20
2019-03-15T20:47:55.179Z,11.10
2019-03-15T20:50:24.245Z,11.20
2019-03-15T20:53:07.147Z,11.20
2019-03-15T20:55:24.147Z,11.20
2019-03-15T20:57:53.150Z,11.20
2019-03-15T21:00:34.852Z,11.10
2019-03-15T21:02:53.582Z,11.10
2019-03-15T21:05:22.637Z,11.10
2019-03-15T21:07:51.694Z,11.00
2019-03-15T21:10:21.625Z,11.00
2019-03-15T21:12:50.771Z,10.90
2019-03-15T21:15:21.092Z,10.90
2019-03-15T21:17:50.220Z,10.90
2019-03-15T21:20:22.558Z,10.90
2019-03-15T21:22:51.074Z,10.90
2019-03-15T21:25:20.096Z,10.80
2019-03-15T21:27:54.175Z,10.80
2019-03-15T21:30:22.422Z,10.80
2019-03-15T21:32:51.408Z,10.70
2019-03-15T21:35:20.357Z,10.60
2019-03-15T21:37:49.501Z,10.60
2019-03-15T21:40:19.661Z,10.60
2019-03-15T21:42:48.690Z,10.60
2019-03-15T21:45:17.731Z,10.60
2019-03-15T21:47:46.847Z,10.60
2019-03-15T21:50:23.593Z,10.60
2019-03-15T21:52:52.642Z,10.50
2019-03-15T21:55:21.839Z,10.60
2019-03-15T21:57:50.881Z,10.50
2019-03-15T22:00:20.563Z,10.40
2019-03-15T22:02:49.698Z,10.40
2019-03-15T22:05:18.725Z,10.30
2019-03-15T22:07:47.969Z,10.40
2019-03-15T22:10:17.558Z,10.40
2019-03-15T22:12:46.652Z,10.30
2019-03-15T22:15:15.881Z,10.40
2019-03-15T22:17:44.933Z,10.40
2019-03-15T22:20:17.592Z,10.50
2019-03-15T22:22:46.565Z,10.50
2019-03-15T22:25:15.753Z,10.50
2019-03-15T22:27:44.810Z,10.50
2019-03-15T22:30:15.838Z,10.50
2019-03-15T22:32:44.949Z,10.50
2019-03-15T22:35:14.231Z,10.60
2019-03-15T22:37:43.369Z,10.60
2019-03-15T22:40:13.668Z,10.60
2019-03-15T22:42:42.701Z,10.70
2019-03-15T22:45:12.995Z,10.70
2019-03-15T22:47:42.041Z,10.70
2019-03-15T22:50:11.958Z,10.70
2019-03-15T22:52:41.054Z,10.70
2019-03-15T22:55:11.096Z,10.80
2019-03-15T22:57:40.596Z,10.80
2019-03-15T23:00:15.559Z,10.70
2019-03-15T23:02:44.658Z,10.80
2019-03-15T23:05:14.263Z,10.80
2019-03-15T23:07:43.501Z,10.90
2019-03-15T23:10:12.646Z,10.80
2019-03-15T23:12:41.699Z,10.90
2019-03-15T23:15:11.824Z,10.90
2019-03-15T23:17:40.849Z,10.90
2019-03-15T23:20:11.513Z,10.90
2019-03-15T23:22:40.491Z,10.90
2019-03-15T23:25:09.844Z,10.90
2019-03-15T23:27:38.972Z,10.90
2019-03-15T23:30:15.643Z,10.80
2019-03-15T23:32:44.850Z,10.90
2019-03-15T23:35:14.062Z,10.90
2019-03-15T23:37:43.099Z,10.90
2019-03-15T23:40:14.169Z,10.90
2019-03-15T23:42:43.280Z,10.90
2019-03-15T23:45:12.551Z,10.90
2019-03-15T23:47:41.817Z,10.90
2019-03-15T23:50:14.704Z,10.80
2019-03-15T23:52:43.757Z,10.70
2019-03-15T23:55:12.830Z,10.60
2019-03-15T23:57:41.993Z,10.60
